createdAt,value
2022-10-17T00:00:40.171Z,6.17
2022-10-17T00:03:07.172Z,6.18
2022-10-17T00:05:34.044Z,6.14
2022-10-17T00:08:00.695Z,6.15
2022-10-17T00:10:27.664Z,6.13
2022-10-17T00:12:54.686Z,6.10
2022-10-17T00:15:21.745Z,6.05
2022-10-17T00:17:48.494Z,6.04
2022-10-17T00:20:15.909Z,6.02
2022-10-17T00:22:43.249Z,5.97
2022-10-17T00:25:10.344Z,5.96
2022-10-17T00:27:41.585Z,5.94
2022-10-17T00:30:15.578Z,5.93
2022-10-17T00:32:42.480Z,5.90
2022-10-17T00:35:09.437Z,5.89
2022-10-17T00:37:36.228Z,5.89
2022-10-17T00:40:04.290Z,5.86
2022-10-17T00:42:31.242Z,5.86
2022-10-17T00:45:12.663Z,5.84
2022-10-17T00:47:40.208Z,5.84
2022-10-17T00:50:07.332Z,5.82
2022-10-17T00:52:34.836Z,5.84
2022-10-17T00:55:13.875Z,5.83
2022-10-17T00:57:41.954Z,5.80
2022-10-17T01:00:11.833Z,5.79
2022-10-17T01:02:39.235Z,5.76
2022-10-17T01:05:07.491Z,5.74
2022-10-17T01:07:37.216Z,5.72
2022-10-17T01:10:06.814Z,5.72
2022-10-17T01:12:47.010Z,5.72
2022-10-17T01:15:19.779Z,5.73
2022-10-17T01:18:01.545Z,5.73
2022-10-17T01:21:02.516Z,5.74
2022-10-17T01:23:47.443Z,5.75
2022-10-17T01:26:48.411Z,5.73
2022-10-17T01:29:37.032Z,5.72
2022-10-17T01:32:23.557Z,5.72
2022-10-17T01:35:04.110Z,5.71
2022-10-17T01:37:33.673Z,5.75
2022-10-17T01:40:10.857Z,5.76
2022-10-17T01:42:56.991Z,5.76
2022-10-17T01:45:41.144Z,5.78
2022-10-17T01:48:15.083Z,5.81
2022-10-17T01:50:47.842Z,5.83
2022-10-17T01:53:24.184Z,5.81
2022-10-17T01:55:54.420Z,5.82
2022-10-17T01:58:33.904Z,5.83
2022-10-17T02:01:05.320Z,5.82
2022-10-17T02:03:34.598Z,5.85
2022-10-17T02:06:02.333Z,5.85
2022-10-17T02:08:40.999Z,5.87
2022-10-17T02:11:20.778Z,5.89
2022-10-17T02:14:05.071Z,5.87
2022-10-17T02:16:50.549Z,5.85
2022-10-17T02:19:52.993Z,5.82
2022-10-17T02:22:31.495Z,5.77
2022-10-17T02:25:14.132Z,5.75
2022-10-17T02:27:59.569Z,5.73
2022-10-17T02:30:29.129Z,5.76
2022-10-17T02:33:21.775Z,5.74
2022-10-17T02:35:53.955Z,5.72
2022-10-17T02:38:22.959Z,5.71
2022-10-17T02:40:51.946Z,5.72
2022-10-17T02:43:19.999Z,5.71
2022-10-17T02:45:47.214Z,5.72
2022-10-17T02:48:42.738Z,5.68
2022-10-17T02:51:16.038Z,5.68
2022-10-17T02:54:13.160Z,5.67
2022-10-17T02:57:08.012Z,5.66
2022-10-17T02:59:35.814Z,5.66
2022-10-17T03:02:05.392Z,5.61
2022-10-17T03:04:32.842Z,5.62
2022-10-17T03:07:00.046Z,5.60
2022-10-17T03:09:27.183Z,5.58
2022-10-17T03:11:54.087Z,5.58
2022-10-17T03:14:20.872Z,5.60
2022-10-17T03:16:47.605Z,5.62
2022-10-17T03:19:14.172Z,5.61
2022-10-17T03:21:41.377Z,5.58
2022-10-17T03:24:07.953Z,5.58
2022-10-17T03:26:34.679Z,5.57
2022-10-17T03:29:01.435Z,5.56
2022-10-17T03:31:28.135Z,5.53
2022-10-17T03:33:54.771Z,5.53
2022-10-17T03:36:21.957Z,5.53
2022-10-17T03:38:48.963Z,5.54
2022-10-17T03:41:15.721Z,5.56
2022-10-17T03:43:42.566Z,5.60
2022-10-17T03:46:09.498Z,5.60
2022-10-17T03:48:36.132Z,5.61
2022-10-17T03:51:05.974Z,5.61
2022-10-17T03:53:33.210Z,5.60
2022-10-17T03:56:20.068Z,5.55
2022-10-17T03:58:46.941Z,5.56
2022-10-17T04:01:16.278Z,5.56
2022-10-17T04:03:44.124Z,5.55
2022-10-17T04:06:13.457Z,5.53
2022-10-17T04:08:40.376Z,5.50
2022-10-17T04:11:08.613Z,5.50
2022-10-17T04:13:35.783Z,5.49
2022-10-17T04:16:05.581Z,5.48
2022-10-17T04:18:33.331Z,5.47
2022-10-17T04:21:06.887Z,5.45
2022-10-17T04:23:34.440Z,5.41
2022-10-17T04:26:01.924Z,5.40
2022-10-17T04:28:28.791Z,5.38
2022-10-17T04:30:59.830Z,5.34
2022-10-17T04:33:26.723Z,5.31
2022-10-17T04:36:08.542Z,5.29
2022-10-17T04:38:35.131Z,5.27
2022-10-17T04:41:04.357Z,5.27
2022-10-17T04:43:35.454Z,5.24
2022-10-17T04:46:04.591Z,5.22
2022-10-17T04:48:31.691Z,5.23
2022-10-17T04:51:01.051Z,5.23
2022-10-17T04:53:28.301Z,5.23
2022-10-17T04:55:55.021Z,5.21
2022-10-17T04:58:22.275Z,5.16
2022-10-17T05:00:48.969Z,5.17
2022-10-17T05:03:15.903Z,5.13
2022-10-17T05:05:43.199Z,5.11
2022-10-17T05:08:11.914Z,5.09
2022-10-17T05:10:44.000Z,5.12
2022-10-17T05:13:11.217Z,5.13
2022-10-17T05:15:38.621Z,5.13
2022-10-17T05:18:06.389Z,5.13
2022-10-17T05:20:34.073Z,5.12
2022-10-17T05:23:00.939Z,5.11
2022-10-17T05:25:27.786Z,5.11
2022-10-17T05:27:54.684Z,5.14
2022-10-17T05:30:21.617Z,5.16
2022-10-17T05:32:48.405Z,5.17
2022-10-17T05:35:15.316Z,5.20
2022-10-17T05:37:41.931Z,5.24
2022-10-17T05:40:09.021Z,5.28
2022-10-17T05:42:35.802Z,5.30
2022-10-17T05:45:02.577Z,5.33
2022-10-17T05:47:29.475Z,5.36
2022-10-17T05:49:56.309Z,5.39
2022-10-17T05:52:23.155Z,5.41
2022-10-17T05:54:49.831Z,5.47
2022-10-17T05:57:16.538Z,5.46
2022-10-17T05:59:43.170Z,5.53
2022-10-17T06:02:13.055Z,5.58
2022-10-17T06:04:45.573Z,5.54
2022-10-17T06:07:16.154Z,5.66
2022-10-17T06:09:43.116Z,5.69
2022-10-17T06:12:10.066Z,5.72
2022-10-17T06:14:36.862Z,5.73
2022-10-17T06:17:03.572Z,5.75
2022-10-17T06:19:30.332Z,5.77
2022-10-17T06:21:56.991Z,5.79
2022-10-17T06:24:24.710Z,5.84
2022-10-17T06:26:51.637Z,5.89
2022-10-17T06:29:19.143Z,5.94
2022-10-17T06:31:47.164Z,5.97
2022-10-17T06:34:13.816Z,6.03
2022-10-17T06:36:40.531Z,6.09
2022-10-17T06:39:09.986Z,6.15
2022-10-17T06:41:39.700Z,6.21
2022-10-17T06:44:11.327Z,6.26
2022-10-17T06:46:40.085Z,6.32
2022-10-17T06:49:09.919Z,6.36
2022-10-17T06:51:39.084Z,6.43
2022-10-17T06:54:09.538Z,6.50
2022-10-17T06:56:39.180Z,6.59
2022-10-17T06:59:09.628Z,6.66
2022-10-17T07:01:41.777Z,6.72
2022-10-17T07:04:11.518Z,6.78
2022-10-17T07:06:39.555Z,6.88
2022-10-17T07:09:09.303Z,6.97
2022-10-17T07:11:39.244Z,7.07
2022-10-17T07:14:07.896Z,7.16
2022-10-17T07:16:35.100Z,7.25
2022-10-17T07:19:02.226Z,7.34
2022-10-17T07:21:29.391Z,7.44
2022-10-17T07:23:56.167Z,7.54
2022-10-17T07:26:23.084Z,7.65
2022-10-17T07:28:55.108Z,7.79
2022-10-17T07:31:23.111Z,7.93
2022-10-17T07:33:50.204Z,8.07
2022-10-17T07:36:17.809Z,8.21
2022-10-17T07:38:44.797Z,8.34
2022-10-17T07:41:13.729Z,8.52
2022-10-17T07:43:43.096Z,8.67
2022-10-17T07:46:11.494Z,8.80
2022-10-17T07:48:41.267Z,8.98
2022-10-17T07:51:09.531Z,9.14
2022-10-17T07:53:42.650Z,9.30
2022-10-17T07:56:10.981Z,9.45
2022-10-17T07:58:38.007Z,9.60
2022-10-17T08:01:10.672Z,9.80
2022-10-17T08:03:49.645Z,9.99
2022-10-17T08:06:16.632Z,10.16
2022-10-17T08:08:44.329Z,10.33
2022-10-17T08:11:13.453Z,10.52
2022-10-17T08:13:41.063Z,10.70
2022-10-17T08:16:09.954Z,10.92
2022-10-17T08:18:37.418Z,11.12
2022-10-17T08:21:06.594Z,11.34
2022-10-17T08:23:33.355Z,11.52
2022-10-17T08:26:01.408Z,11.72
2022-10-17T08:28:28.570Z,11.91
2022-10-17T08:31:06.663Z,12.10
2022-10-17T08:33:36.428Z,12.27
2022-10-17T08:36:04.889Z,12.48
2022-10-17T08:38:35.628Z,12.67
2022-10-17T08:41:44.484Z,12.88
2022-10-17T08:44:26.031Z,13.10
2022-10-17T08:46:59.025Z,13.27
2022-10-17T08:49:48.001Z,13.46
2022-10-17T08:52:30.793Z,13.62
2022-10-17T08:54:57.881Z,13.80
2022-10-17T08:57:24.452Z,13.93
2022-10-17T08:59:54.330Z,14.07
2022-10-17T09:03:14.637Z,14.20
2022-10-17T09:05:49.916Z,14.42
2022-10-17T09:08:32.491Z,14.62
2022-10-17T09:11:09.845Z,14.82
2022-10-17T09:14:08.313Z,14.91
2022-10-17T09:16:46.578Z,15.01
2022-10-17T09:19:39.179Z,15.09
2022-10-17T09:22:26.666Z,15.19
2022-10-17T09:24:59.317Z,15.35
2022-10-17T09:28:09.319Z,15.49
2022-10-17T09:30:56.177Z,15.65
2022-10-17T09:33:54.173Z,15.80
2022-10-17T09:36:27.630Z,15.88
2022-10-17T09:38:57.196Z,16.00
2022-10-17T09:41:44.983Z,16.12
2022-10-17T09:44:23.071Z,16.23
2022-10-17T09:46:59.712Z,16.32
2022-10-17T09:49:33.370Z,16.44
2022-10-17T09:52:02.238Z,16.52
2022-10-17T09:54:49.566Z,16.63
2022-10-17T09:57:18.116Z,16.71
2022-10-17T09:59:57.731Z,16.79
2022-10-17T10:02:26.103Z,16.88
2022-10-17T10:05:09.574Z,17.01
2022-10-17T10:07:39.594Z,17.17
2022-10-17T10:10:25.427Z,17.27
2022-10-17T10:13:16.808Z,17.34
2022-10-17T10:15:47.752Z,17.42
2022-10-17T10:18:27.008Z,17.48
2022-10-17T10:21:27.017Z,17.53
2022-10-17T10:24:12.061Z,17.56
2022-10-17T10:26:46.181Z,17.62
2022-10-17T10:29:32.409Z,17.72
2022-10-17T10:32:07.374Z,17.84
2022-10-17T10:34:36.175Z,17.94
2022-10-17T10:37:06.305Z,18.09
2022-10-17T10:39:53.350Z,18.23
2022-10-17T10:42:45.962Z,18.40
2022-10-17T10:45:47.096Z,18.52
2022-10-17T10:48:12.080Z,18.60
2022-10-17T10:50:45.368Z,18.68
2022-10-17T10:53:24.964Z,18.76
2022-10-17T10:55:57.016Z,18.86
2022-10-17T11:14:19.001Z,19.59
2022-10-17T11:17:19.972Z,19.62
2022-10-17T11:20:15.161Z,19.75
2022-10-17T11:22:47.168Z,19.82
2022-10-17T11:25:32.040Z,19.87
2022-10-17T11:28:04.434Z,19.84
2022-10-17T11:33:21.860Z,19.86
2022-10-17T11:35:51.239Z,19.85
2022-10-17T11:38:39.973Z,19.88
2022-10-17T11:41:11.502Z,19.91
2022-10-17T11:43:40.739Z,19.94
2022-10-17T11:46:16.549Z,19.95
2022-10-17T11:49:04.238Z,20.00
2022-10-17T11:52:02.128Z,20.00
2022-10-17T11:54:40.417Z,19.99
2022-10-17T11:57:37.392Z,20.00
2022-10-17T12:00:30.799Z,19.94
2022-10-17T12:03:13.039Z,19.89
2022-10-17T12:06:05.083Z,19.87
2022-10-17T12:08:56.422Z,19.87
2022-10-17T12:11:25.755Z,19.85
2022-10-17T12:13:54.774Z,19.83
2022-10-17T12:16:21.657Z,19.81
2022-10-17T12:18:52.109Z,19.85
2022-10-17T12:21:19.174Z,19.91
2022-10-17T12:23:55.608Z,19.92
2022-10-17T12:26:30.244Z,20.05
2022-10-17T12:28:57.721Z,20.07
2022-10-17T12:31:33.439Z,20.11
2022-10-17T12:34:02.449Z,20.17
2022-10-17T12:36:29.278Z,20.19
2022-10-17T12:39:01.967Z,20.23
2022-10-17T12:41:40.837Z,20.21
2022-10-17T12:44:13.584Z,20.18
2022-10-17T12:46:44.073Z,20.21
2022-10-17T12:49:40.423Z,20.27
2022-10-17T12:52:19.487Z,20.27
2022-10-17T12:55:14.406Z,20.25
2022-10-17T12:57:44.797Z,20.30
2022-10-17T13:00:22.210Z,20.35
2022-10-17T13:02:52.390Z,20.41
2022-10-17T13:05:38.232Z,20.38
2022-10-17T13:08:08.172Z,20.36
2022-10-17T13:10:43.029Z,20.36
2022-10-17T13:13:33.810Z,20.41
2022-10-17T13:16:01.000Z,20.40
2022-10-17T13:18:29.585Z,20.36
2022-10-17T13:20:57.557Z,20.42
2022-10-17T13:23:25.938Z,20.42
2022-10-17T13:26:14.683Z,20.47
2022-10-17T13:28:42.238Z,20.41
2022-10-17T13:31:28.246Z,20.37
2022-10-17T13:33:59.903Z,20.27
2022-10-17T13:36:28.907Z,20.23
2022-10-17T13:38:56.243Z,20.21
2022-10-17T13:41:36.678Z,20.19
2022-10-17T13:44:08.004Z,20.16
2022-10-17T13:46:38.343Z,20.15
2022-10-17T13:49:18.807Z,20.14
2022-10-17T13:51:51.120Z,20.07
2022-10-17T13:54:42.869Z,19.99
2022-10-17T13:57:25.080Z,19.93
2022-10-17T14:00:00.815Z,19.85
2022-10-17T14:02:36.687Z,19.77
2022-10-17T14:05:23.122Z,19.72
2022-10-17T14:10:43.614Z,19.55
2022-10-17T14:13:27.917Z,19.50
2022-10-17T14:15:57.249Z,19.48
2022-10-17T14:18:36.570Z,19.42
2022-10-17T14:21:36.931Z,19.36
2022-10-17T14:24:11.699Z,19.16
2022-10-17T14:26:51.925Z,19.08
2022-10-17T14:29:25.167Z,18.95
2022-10-17T14:32:06.636Z,18.81
2022-10-17T14:34:36.238Z,18.68
2022-10-17T14:37:23.354Z,18.52
2022-10-17T14:39:55.302Z,18.38
2022-10-17T14:42:24.900Z,18.23
2022-10-17T14:44:54.894Z,18.17
2022-10-17T14:47:42.748Z,18.06
2022-10-17T14:50:16.453Z,17.93
2022-10-17T14:53:19.275Z,17.82
2022-10-17T14:56:00.297Z,17.71
2022-10-17T14:58:35.181Z,17.58
2022-10-17T15:01:04.744Z,17.43
2022-10-17T15:03:31.485Z,17.32
2022-10-17T15:06:09.446Z,17.21
2022-10-17T15:08:36.959Z,17.09
2022-10-17T15:11:06.545Z,16.98
2022-10-17T15:13:42.189Z,16.86
2022-10-17T15:16:30.560Z,16.76
2022-10-17T15:18:58.061Z,16.60
2022-10-17T15:21:38.393Z,16.43
2022-10-17T15:24:12.704Z,16.33
2022-10-17T15:26:42.805Z,16.19
2022-10-17T15:29:18.761Z,16.09
2022-10-17T15:31:48.709Z,15.97
2022-10-17T15:34:18.412Z,15.86
2022-10-17T15:36:51.302Z,15.72
2022-10-17T15:39:19.675Z,15.61
2022-10-17T15:41:49.051Z,15.52
2022-10-17T15:44:18.856Z,15.43
2022-10-17T15:46:48.735Z,15.37
2022-10-17T15:49:20.047Z,15.26
2022-10-17T15:51:54.380Z,15.12
2022-10-17T15:54:21.979Z,15.05
2022-10-17T15:56:54.140Z,14.93
2022-10-17T15:59:32.307Z,14.81
2022-10-17T16:01:58.999Z,14.67
2022-10-17T16:04:27.519Z,14.58
2022-10-17T16:06:54.303Z,14.51
2022-10-17T16:09:21.246Z,14.41
2022-10-17T16:11:47.930Z,14.29
2022-10-17T16:14:18.266Z,14.15
2022-10-17T16:16:45.164Z,14.04
2022-10-17T16:19:11.736Z,13.98
2022-10-17T16:21:40.994Z,13.87
2022-10-17T16:24:11.258Z,13.74
2022-10-17T16:26:38.999Z,13.63
2022-10-17T16:29:05.807Z,13.54
2022-10-17T16:31:35.210Z,13.48
2022-10-17T16:34:03.403Z,13.38
2022-10-17T16:36:30.314Z,13.32
2022-10-17T16:38:57.213Z,13.24
2022-10-17T16:41:32.930Z,13.19
2022-10-17T16:44:02.854Z,13.10
2022-10-17T16:46:31.137Z,13.00
2022-10-17T16:48:58.386Z,12.88
2022-10-17T16:51:25.718Z,12.80
2022-10-17T16:53:54.650Z,12.72
2022-10-17T16:56:23.821Z,12.67
2022-10-17T16:58:51.707Z,12.61
2022-10-17T17:01:20.882Z,12.55
2022-10-17T17:03:47.870Z,12.50
2022-10-17T17:06:17.066Z,12.40
2022-10-17T17:08:44.037Z,12.31
2022-10-17T17:11:14.768Z,12.27
2022-10-17T17:13:42.875Z,12.21
2022-10-17T17:16:27.529Z,12.15
2022-10-17T17:19:08.351Z,12.11
2022-10-17T17:21:35.411Z,12.04
2022-10-17T17:24:03.570Z,11.97
2022-10-17T17:26:35.961Z,11.91
2022-10-17T17:29:03.643Z,11.87
2022-10-17T17:31:33.791Z,11.78
2022-10-17T17:34:01.113Z,11.72
2022-10-17T17:36:32.677Z,11.66
2022-10-17T17:39:02.700Z,11.59
2022-10-17T17:41:36.773Z,11.53
2022-10-17T17:44:04.963Z,11.48
2022-10-17T17:46:33.709Z,11.41
2022-10-17T17:49:03.143Z,11.36
2022-10-17T17:51:31.522Z,11.31
2022-10-17T17:53:59.670Z,11.26
2022-10-17T17:56:35.575Z,11.23
2022-10-17T17:59:02.847Z,11.19
2022-10-17T18:01:41.667Z,11.17
2022-10-17T18:04:11.995Z,11.14
2022-10-17T18:06:40.196Z,11.09
2022-10-17T18:09:07.978Z,11.01
2022-10-17T18:11:35.859Z,10.98
2022-10-17T18:14:06.015Z,10.94
2022-10-17T18:16:37.670Z,10.92
2022-10-17T18:19:07.274Z,10.88
2022-10-17T18:21:34.880Z,10.84
2022-10-17T18:24:02.041Z,10.78
2022-10-17T18:26:29.542Z,10.76
2022-10-17T18:28:56.620Z,10.74
2022-10-17T18:31:28.435Z,10.72
2022-10-17T18:33:57.323Z,10.68
2022-10-17T18:36:26.154Z,10.62
2022-10-17T18:38:54.363Z,10.58
2022-10-17T18:41:23.767Z,10.51
2022-10-17T18:43:52.369Z,10.45
2022-10-17T18:46:28.562Z,10.41
2022-10-17T18:48:56.214Z,10.35
2022-10-17T18:51:24.379Z,10.31
2022-10-17T18:53:55.349Z,10.26
2022-10-17T18:56:23.606Z,10.18
2022-10-17T18:58:52.832Z,10.13
2022-10-17T19:01:23.011Z,10.07
2022-10-17T19:03:52.838Z,9.99
2022-10-17T19:06:23.388Z,9.91
2022-10-17T19:08:54.085Z,9.87
2022-10-17T19:11:27.376Z,9.85
2022-10-17T19:13:58.564Z,9.81
2022-10-17T19:16:28.540Z,9.78
2022-10-17T19:18:58.085Z,9.75
2022-10-17T19:21:25.401Z,9.72
2022-10-17T19:23:56.301Z,9.66
2022-10-17T19:26:26.628Z,9.62
2022-10-17T19:28:55.581Z,9.60
2022-10-17T19:31:27.270Z,9.57
2022-10-17T19:33:56.288Z,9.54
2022-10-17T19:36:30.709Z,9.49
2022-10-17T19:39:04.724Z,9.47
2022-10-17T19:41:34.106Z,9.43
2022-10-17T19:44:01.341Z,9.41
2022-10-17T19:46:30.117Z,9.39
2022-10-17T19:48:56.878Z,9.39
2022-10-17T19:51:24.656Z,9.35
2022-10-17T19:53:52.955Z,9.32
2022-10-17T19:56:24.243Z,9.33
2022-10-17T19:58:51.196Z,9.29
2022-10-17T20:01:23.024Z,9.22
2022-10-17T20:03:49.847Z,9.18
2022-10-17T20:06:17.665Z,9.14
2022-10-17T20:08:44.298Z,9.10
2022-10-17T20:11:13.577Z,9.08
2022-10-17T20:13:41.052Z,9.04
2022-10-17T20:16:10.925Z,8.99
2022-10-17T20:18:38.308Z,8.98
2022-10-17T20:21:10.509Z,8.97
2022-10-17T20:23:37.576Z,8.92
2022-10-17T20:26:25.479Z,8.88
2022-10-17T20:28:55.252Z,8.85
2022-10-17T20:31:22.461Z,8.87
2022-10-17T20:33:55.133Z,8.83
2022-10-17T20:36:23.629Z,8.82
2022-10-17T20:38:55.567Z,8.73
2022-10-17T20:41:23.352Z,8.65
2022-10-17T20:43:51.864Z,8.63
2022-10-17T20:46:34.986Z,8.60
2022-10-17T20:49:03.746Z,8.54
2022-10-17T20:51:30.590Z,8.53
2022-10-17T20:56:30.439Z,8.45
2022-10-17T20:58:59.923Z,8.43
2022-10-17T21:01:27.829Z,8.40
2022-10-17T21:03:54.768Z,8.40
2022-10-17T21:06:23.716Z,8.39
2022-10-17T21:08:52.937Z,8.38
2022-10-17T21:11:22.251Z,8.35
2022-10-17T21:13:58.289Z,8.33
2022-10-17T21:16:25.822Z,8.29
2022-10-17T21:18:52.830Z,8.25
2022-10-17T21:21:22.633Z,8.23
2022-10-17T21:23:50.991Z,8.20
2022-10-17T21:26:18.857Z,8.18
2022-10-17T21:28:47.593Z,8.10
2022-10-17T21:31:26.059Z,8.09
2022-10-17T21:33:56.404Z,8.04
2022-10-17T21:36:24.493Z,8.02
2022-10-17T21:38:54.205Z,7.98
2022-10-17T21:41:23.357Z,7.97
2022-10-17T21:43:58.937Z,7.93
2022-10-17T21:46:25.868Z,7.89
2022-10-17T21:48:53.051Z,7.88
2022-10-17T21:51:23.073Z,7.86
2022-10-17T21:53:51.131Z,7.82
2022-10-17T21:56:20.815Z,7.81
2022-10-17T21:58:48.215Z,7.78
2022-10-17T22:01:20.911Z,7.75
2022-10-17T22:03:50.124Z,7.71
2022-10-17T22:06:39.137Z,7.67
2022-10-17T22:09:24.749Z,7.65
2022-10-17T22:11:56.893Z,7.66
2022-10-17T22:14:27.290Z,7.62
2022-10-17T22:16:54.510Z,7.60
2022-10-17T22:19:26.726Z,7.59
2022-10-17T22:21:54.287Z,7.58
2022-10-17T22:26:53.553Z,7.52
2022-10-17T22:29:20.453Z,7.50
2022-10-17T22:31:47.228Z,7.46
2022-10-17T22:34:15.342Z,7.40
2022-10-17T22:36:42.685Z,7.38
2022-10-17T22:39:09.582Z,7.35
2022-10-17T22:41:36.634Z,7.33
2022-10-17T22:44:03.705Z,7.33
2022-10-17T22:46:30.407Z,7.32
2022-10-17T22:48:57.073Z,7.26
2022-10-17T22:53:50.411Z,7.24
2022-10-17T22:56:20.208Z,7.22
2022-10-17T22:58:47.664Z,7.20
2022-10-17T23:01:17.205Z,7.16
2022-10-17T23:03:44.805Z,7.11
2022-10-17T23:06:12.289Z,7.06
2022-10-17T23:08:39.408Z,6.98
2022-10-17T23:11:07.519Z,6.96
2022-10-17T23:13:34.513Z,6.92
2022-10-17T23:16:01.148Z,6.92
2022-10-17T23:18:27.946Z,6.89
2022-10-17T23:20:55.105Z,6.91
2022-10-17T23:23:22.272Z,6.90
2022-10-17T23:25:49.565Z,6.87
2022-10-17T23:28:17.046Z,6.87
2022-10-17T23:30:44.168Z,6.86
2022-10-17T23:33:13.060Z,6.80
2022-10-17T23:35:40.589Z,6.84
2022-10-17T23:38:07.389Z,6.80
2022-10-17T23:40:35.412Z,6.80
2022-10-17T23:43:02.828Z,6.76
2022-10-17T23:45:33.403Z,6.74
2022-10-17T23:48:02.857Z,6.70
2022-10-17T23:50:29.668Z,6.69
2022-10-17T23:52:56.243Z,6.63
2022-10-17T23:55:22.884Z,6.62
2022-10-17T23:57:49.724Z,6.57
